createdAt,value
2022-10-06T00:01:06.876Z,55.31
2022-10-06T00:03:33.770Z,55.51
2022-10-06T00:06:02.303Z,55.57
2022-10-06T00:08:31.653Z,55.08
2022-10-06T00:10:58.798Z,55.41
2022-10-06T00:13:26.842Z,55.57
2022-10-06T00:15:53.958Z,55.69
2022-10-06T00:18:20.864Z,55.21
2022-10-06T00:20:58.204Z,55.25
2022-10-06T00:23:25.351Z,55.54
2022-10-06T00:25:52.447Z,55.39
2022-10-06T00:28:19.797Z,55.34
2022-10-06T00:30:47.445Z,55.03
2022-10-06T00:33:16.593Z,55.37
2022-10-06T00:35:44.790Z,55.24
2022-10-06T00:38:13.476Z,55.52
2022-10-06T00:40:45.988Z,55.63
2022-10-06T00:43:37.208Z,55.03
2022-10-06T00:46:04.248Z,55.13
2022-10-06T00:48:31.531Z,55.40
2022-10-06T00:50:59.468Z,55.72
2022-10-06T00:53:30.199Z,55.43
2022-10-06T00:55:57.382Z,55.47
2022-10-06T00:58:25.379Z,55.74
2022-10-06T01:00:54.692Z,55.38
2022-10-06T01:03:28.219Z,55.13
2022-10-06T01:05:56.290Z,55.54
2022-10-06T01:08:23.702Z,55.20
2022-10-06T01:10:50.542Z,55.26
2022-10-06T01:13:18.238Z,55.30
2022-10-06T01:15:54.995Z,55.28
2022-10-06T01:18:23.817Z,55.33
2022-10-06T01:20:59.802Z,55.73
2022-10-06T01:23:27.330Z,55.67
2022-10-06T01:25:54.545Z,55.35
2022-10-06T01:28:21.590Z,55.79
2022-10-06T01:30:52.889Z,55.83
2022-10-06T01:33:21.771Z,55.36
2022-10-06T01:35:51.167Z,55.43
2022-10-06T01:38:18.690Z,55.54
2022-10-06T01:40:46.263Z,55.41
2022-10-06T01:43:13.421Z,55.61
2022-10-06T01:45:40.230Z,55.56
2022-10-06T01:48:07.305Z,55.25
2022-10-06T01:50:34.126Z,55.37
2022-10-06T01:53:01.081Z,55.42
2022-10-06T01:55:28.122Z,55.32
2022-10-06T01:57:54.967Z,55.59
2022-10-06T02:00:21.784Z,55.49
2022-10-06T02:02:50.748Z,55.42
2022-10-06T02:05:17.657Z,55.26
2022-10-06T02:07:44.757Z,55.44
2022-10-06T02:10:11.606Z,55.68
2022-10-06T02:12:42.418Z,55.65
2022-10-06T02:15:12.518Z,55.48
2022-10-06T02:17:40.027Z,55.86
2022-10-06T02:20:07.280Z,55.78
2022-10-06T02:22:39.378Z,55.55
2022-10-06T02:25:07.161Z,55.87
2022-10-06T02:27:33.969Z,55.86
2022-10-06T02:30:01.321Z,55.91
2022-10-06T02:32:39.815Z,55.90
2022-10-06T02:35:07.324Z,55.91
2022-10-06T02:37:34.533Z,55.71
2022-10-06T02:40:01.482Z,55.54
2022-10-06T02:42:28.495Z,55.65
2022-10-06T02:44:55.334Z,55.70
2022-10-06T02:47:22.757Z,55.66
2022-10-06T02:49:50.281Z,55.66
2022-10-06T02:52:17.292Z,55.57
2022-10-06T02:54:44.235Z,56.00
2022-10-06T02:57:11.129Z,55.65
2022-10-06T02:59:37.906Z,55.58
2022-10-06T03:02:04.924Z,56.04
2022-10-06T03:04:31.920Z,56.14
2022-10-06T03:06:58.782Z,55.75
2022-10-06T03:09:25.607Z,55.82
2022-10-06T03:11:52.553Z,55.85
2022-10-06T03:14:22.070Z,55.65
2022-10-06T03:16:51.644Z,55.69
2022-10-06T03:19:18.545Z,55.67
2022-10-06T03:21:45.403Z,55.68
2022-10-06T03:24:12.665Z,56.24
2022-10-06T03:26:42.606Z,55.66
2022-10-06T03:29:11.907Z,55.48
2022-10-06T03:31:39.906Z,55.68
2022-10-06T03:34:07.208Z,55.61
2022-10-06T03:36:35.484Z,55.69
2022-10-06T03:39:05.227Z,55.93
2022-10-06T03:41:34.614Z,55.84
2022-10-06T03:44:01.948Z,55.96
2022-10-06T03:46:31.071Z,55.73
2022-10-06T03:48:59.380Z,55.73
2022-10-06T03:51:34.939Z,55.72
2022-10-06T03:54:02.348Z,55.89
2022-10-06T03:56:30.457Z,55.95
2022-10-06T03:58:59.809Z,55.94
2022-10-06T04:01:33.263Z,55.80
2022-10-06T04:04:01.250Z,56.00
2022-10-06T04:06:30.686Z,55.99
2022-10-06T04:08:57.759Z,55.74
2022-10-06T04:11:27.226Z,55.60
2022-10-06T04:14:00.563Z,56.19
2022-10-06T04:16:32.939Z,55.91
2022-10-06T04:19:03.807Z,56.05
2022-10-06T04:21:33.127Z,56.04
2022-10-06T04:24:00.304Z,56.08
2022-10-06T04:26:32.696Z,55.82
2022-10-06T04:29:00.754Z,56.21
2022-10-06T04:31:34.469Z,55.88
2022-10-06T04:34:01.751Z,55.98
2022-10-06T04:36:31.408Z,56.02
2022-10-06T04:39:01.430Z,55.83
2022-10-06T04:41:39.802Z,55.88
2022-10-06T04:44:07.534Z,56.08
2022-10-06T04:46:43.864Z,55.86
2022-10-06T04:49:19.161Z,55.90
2022-10-06T04:51:48.865Z,55.81
2022-10-06T04:54:15.988Z,56.05
2022-10-06T04:56:42.881Z,55.92
2022-10-06T04:59:09.866Z,55.99
2022-10-06T05:01:37.733Z,56.00
2022-10-06T05:04:06.304Z,56.13
2022-10-06T05:06:36.094Z,55.83
2022-10-06T05:09:06.714Z,55.85
2022-10-06T05:11:34.384Z,56.16
2022-10-06T05:14:01.576Z,56.10
2022-10-06T05:16:30.835Z,56.11
2022-10-06T05:18:58.413Z,56.19
2022-10-06T05:21:30.660Z,55.99
2022-10-06T05:23:58.161Z,56.12
2022-10-06T05:26:27.811Z,55.93
2022-10-06T05:28:54.708Z,56.03
2022-10-06T05:31:24.155Z,56.29
2022-10-06T05:33:51.093Z,55.82
2022-10-06T05:36:20.773Z,55.96
2022-10-06T05:38:48.100Z,56.08
2022-10-06T05:41:17.538Z,56.28
2022-10-06T05:43:44.967Z,56.09
2022-10-06T05:46:24.810Z,56.08
2022-10-06T05:48:55.535Z,56.23
2022-10-06T05:51:30.031Z,56.32
2022-10-06T05:53:58.924Z,55.91
2022-10-06T05:56:31.268Z,56.21
2022-10-06T05:58:59.458Z,55.95
2022-10-06T06:01:31.268Z,55.95
2022-10-06T06:04:05.280Z,56.08
2022-10-06T06:06:34.666Z,56.24
2022-10-06T06:09:10.478Z,56.13
2022-10-06T06:11:40.508Z,56.03
2022-10-06T06:14:13.393Z,56.29
2022-10-06T06:16:41.600Z,56.15
2022-10-06T06:19:10.542Z,56.04
2022-10-06T06:21:37.831Z,56.21
2022-10-06T06:24:05.638Z,56.12
2022-10-06T06:26:35.106Z,56.01
2022-10-06T06:29:05.422Z,56.10
2022-10-06T06:31:37.947Z,56.43
2022-10-06T06:34:06.857Z,56.07
2022-10-06T06:36:40.662Z,56.07
2022-10-06T06:39:10.332Z,56.11
2022-10-06T06:41:47.461Z,56.18
2022-10-06T06:44:14.789Z,56.03
2022-10-06T06:46:44.874Z,56.26
2022-10-06T06:49:12.295Z,55.80
2022-10-06T06:51:42.494Z,56.13
2022-10-06T06:54:10.619Z,55.84
2022-10-06T06:56:38.924Z,55.98
2022-10-06T06:59:08.957Z,56.05
2022-10-06T07:01:36.463Z,56.22
2022-10-06T07:04:04.088Z,55.94
2022-10-06T07:06:31.701Z,56.04
2022-10-06T07:09:00.224Z,56.16
2022-10-06T07:11:46.668Z,55.87
2022-10-06T07:14:13.579Z,56.19
2022-10-06T07:16:59.001Z,56.19
2022-10-06T07:19:37.981Z,55.81
2022-10-06T07:22:26.430Z,55.91
2022-10-06T07:25:13.277Z,56.14
2022-10-06T07:27:45.351Z,55.88
2022-10-06T07:30:27.042Z,55.97
2022-10-06T07:32:54.924Z,55.88
2022-10-06T07:35:23.262Z,56.21
2022-10-06T07:37:51.315Z,56.41
2022-10-06T07:40:18.533Z,56.24
2022-10-06T07:42:48.239Z,56.45
2022-10-06T07:45:40.394Z,56.01
2022-10-06T07:48:14.681Z,56.09
2022-10-06T07:50:43.428Z,55.81
2022-10-06T07:53:10.375Z,55.98
2022-10-06T07:55:39.938Z,56.21
2022-10-06T07:58:18.791Z,55.92
2022-10-06T08:00:46.935Z,56.07
2022-10-06T08:03:18.606Z,55.96
2022-10-06T08:05:50.197Z,55.83
2022-10-06T08:08:17.690Z,56.07
2022-10-06T08:10:53.253Z,56.20
2022-10-06T08:13:20.706Z,55.90
2022-10-06T08:15:50.274Z,55.98
2022-10-06T08:18:41.194Z,56.14
2022-10-06T08:21:17.853Z,55.92
2022-10-06T08:23:46.441Z,56.18
2022-10-06T08:26:14.986Z,56.15
2022-10-06T08:28:51.407Z,56.20
2022-10-06T08:31:21.362Z,55.82
2022-10-06T08:33:53.183Z,56.00
2022-10-06T08:36:21.068Z,56.16
2022-10-06T08:38:50.097Z,55.99
2022-10-06T08:41:24.233Z,55.81
2022-10-06T08:44:18.526Z,55.85
2022-10-06T08:47:02.310Z,56.09
2022-10-06T08:49:40.733Z,55.96
2022-10-06T08:52:26.994Z,56.19
2022-10-06T08:55:20.368Z,55.75
2022-10-06T08:58:08.225Z,55.68
2022-10-06T09:00:35.203Z,55.74
2022-10-06T09:03:02.635Z,55.77
2022-10-06T09:05:34.668Z,55.76
2022-10-06T09:08:16.805Z,55.64
2022-10-06T09:10:49.780Z,55.92
2022-10-06T09:13:28.590Z,55.71
2022-10-06T09:16:01.881Z,55.84
2022-10-06T09:19:09.240Z,56.07
2022-10-06T09:21:40.921Z,55.52
2022-10-06T09:24:14.459Z,55.65
2022-10-06T09:26:44.171Z,55.86
2022-10-06T09:29:11.783Z,55.90
2022-10-06T09:31:50.995Z,55.95
2022-10-06T09:34:40.757Z,55.89
2022-10-06T09:37:13.485Z,55.78
2022-10-06T09:39:46.036Z,55.83
2022-10-06T09:42:19.004Z,55.62
2022-10-06T09:44:51.610Z,55.88
2022-10-06T09:47:36.688Z,55.63
2022-10-06T09:50:12.487Z,55.92
2022-10-06T09:52:40.586Z,55.78
2022-10-06T09:55:11.366Z,55.81
2022-10-06T09:57:39.607Z,55.82
2022-10-06T10:00:26.776Z,55.86
2022-10-06T10:03:03.273Z,55.49
2022-10-06T10:05:33.163Z,55.71
2022-10-06T10:08:10.206Z,55.85
2022-10-06T10:10:37.482Z,55.66
2022-10-06T10:13:25.619Z,55.28
2022-10-06T10:16:03.032Z,55.36
2022-10-06T10:18:31.609Z,55.54
2022-10-06T10:21:05.054Z,55.56
2022-10-06T10:23:32.907Z,55.50
2022-10-06T10:26:08.740Z,55.67
2022-10-06T10:29:06.787Z,55.56
2022-10-06T10:31:41.489Z,55.66
2022-10-06T10:34:24.427Z,55.57
2022-10-06T10:36:59.562Z,55.60
2022-10-06T10:40:01.652Z,55.61
2022-10-06T10:42:37.222Z,55.59
2022-10-06T10:45:15.058Z,55.16
2022-10-06T10:47:47.190Z,55.50
2022-10-06T10:50:21.426Z,55.25
2022-10-06T10:52:51.566Z,55.35
2022-10-06T10:55:34.526Z,55.50
2022-10-06T10:58:16.799Z,55.34
2022-10-06T11:00:48.665Z,55.37
2022-10-06T11:03:15.631Z,55.02
2022-10-06T11:06:06.907Z,55.30
2022-10-06T11:08:33.658Z,55.13
2022-10-06T11:11:04.424Z,55.15
2022-10-06T11:13:57.713Z,55.59
2022-10-06T11:16:27.558Z,55.45
2022-10-06T11:19:48.617Z,55.42
2022-10-06T11:22:20.850Z,54.86
2022-10-06T11:25:15.729Z,54.96
2022-10-06T11:28:01.611Z,54.87
2022-10-06T11:30:30.535Z,54.82
2022-10-06T11:33:29.637Z,55.04
2022-10-06T11:35:56.699Z,54.93
2022-10-06T11:38:40.344Z,55.02
2022-10-06T11:41:23.944Z,54.75
2022-10-06T11:44:00.610Z,55.10
2022-10-06T11:46:32.145Z,54.56
2022-10-06T11:49:30.402Z,54.82
2022-10-06T11:52:17.794Z,54.87
2022-10-06T11:54:47.422Z,54.68
2022-10-06T11:57:27.989Z,54.70
2022-10-06T12:00:17.647Z,55.18
2022-10-06T12:02:46.946Z,55.15
2022-10-06T12:05:53.979Z,54.80
2022-10-06T12:08:08.760Z,54.93
2022-10-06T12:10:35.974Z,54.80
2022-10-06T12:20:01.982Z,54.50
2022-10-06T12:22:34.712Z,54.84
2022-10-06T12:25:17.642Z,54.26
2022-10-06T12:28:03.076Z,54.74
2022-10-06T12:30:48.582Z,54.44
2022-10-06T12:33:17.876Z,54.57
2022-10-06T12:35:45.554Z,54.43
2022-10-06T12:38:41.554Z,54.27
2022-10-06T12:41:14.778Z,54.70
2022-10-06T12:44:00.773Z,54.33
2022-10-06T12:46:36.743Z,54.49
2022-10-06T12:49:40.231Z,54.26
2022-10-06T12:52:20.398Z,54.17
2022-10-06T12:54:59.850Z,54.52
2022-10-06T12:57:30.740Z,54.45
2022-10-06T12:59:58.148Z,54.05
2022-10-06T13:02:28.597Z,54.19
2022-10-06T13:05:09.977Z,54.22
2022-10-06T13:07:59.264Z,54.47
2022-10-06T13:10:29.153Z,54.27
2022-10-06T13:12:58.106Z,53.88
2022-10-06T13:15:34.403Z,54.36
2022-10-06T13:18:07.421Z,54.21
2022-10-06T13:20:36.578Z,53.78
2022-10-06T13:23:10.473Z,53.76
2022-10-06T13:25:44.472Z,54.28
2022-10-06T13:28:34.520Z,53.93
2022-10-06T13:33:39.701Z,53.78
2022-10-06T13:36:07.944Z,54.05
2022-10-06T13:38:37.934Z,54.15
2022-10-06T13:41:05.206Z,53.72
2022-10-06T13:43:39.762Z,54.10
2022-10-06T13:46:12.625Z,53.79
2022-10-06T13:49:00.770Z,53.80
2022-10-06T13:51:30.745Z,54.06
2022-10-06T13:54:17.897Z,53.70
2022-10-06T13:56:45.122Z,53.58
2022-10-06T13:59:38.359Z,53.91
2022-10-06T14:02:25.821Z,53.42
2022-10-06T14:05:26.994Z,54.08
2022-10-06T14:07:57.620Z,53.91
2022-10-06T14:10:33.507Z,53.50
2022-10-06T14:13:02.031Z,53.76
2022-10-06T14:15:35.688Z,53.67
2022-10-06T14:18:04.878Z,53.66
2022-10-06T14:20:47.183Z,53.91
2022-10-06T14:23:34.922Z,53.94
2022-10-06T14:26:01.998Z,53.89
2022-10-06T14:28:28.940Z,53.86
2022-10-06T14:30:57.436Z,53.72
2022-10-06T14:33:25.516Z,53.54
2022-10-06T14:35:53.113Z,53.24
2022-10-06T14:38:20.153Z,53.68
2022-10-06T14:40:47.157Z,53.21
2022-10-06T14:43:14.343Z,53.69
2022-10-06T14:45:43.124Z,53.20
2022-10-06T14:48:11.148Z,53.46
2022-10-06T14:50:38.147Z,53.51
2022-10-06T14:53:05.543Z,53.57
2022-10-06T14:55:32.337Z,53.60
2022-10-06T14:57:59.416Z,53.36
2022-10-06T15:00:29.440Z,53.24
2022-10-06T15:02:57.134Z,53.60
2022-10-06T15:05:24.218Z,53.18
2022-10-06T15:08:09.736Z,53.30
2022-10-06T15:10:38.884Z,53.13
2022-10-06T15:13:08.404Z,53.12
2022-10-06T15:15:36.198Z,53.52
2022-10-06T15:18:04.257Z,53.54
2022-10-06T15:20:31.539Z,53.24
2022-10-06T15:22:58.456Z,53.46
2022-10-06T15:25:43.743Z,53.37
2022-10-06T15:28:31.891Z,53.24
2022-10-06T15:30:58.965Z,53.34
2022-10-06T15:33:30.301Z,53.36
2022-10-06T15:36:24.335Z,53.59
2022-10-06T15:38:52.274Z,53.34
2022-10-06T15:41:19.867Z,53.38
2022-10-06T15:43:56.130Z,53.37
2022-10-06T15:46:40.842Z,53.02
2022-10-06T15:49:08.879Z,53.13
2022-10-06T15:51:42.806Z,52.84
2022-10-06T15:54:10.853Z,53.17
2022-10-06T15:56:42.181Z,52.87
2022-10-06T15:59:09.252Z,52.87
2022-10-06T16:01:43.337Z,52.67
2022-10-06T16:04:45.588Z,52.67
2022-10-06T16:07:17.310Z,52.95
2022-10-06T16:09:46.515Z,53.01
2022-10-06T16:12:18.897Z,53.17
2022-10-06T16:14:46.298Z,52.65
2022-10-06T16:17:14.170Z,52.89
2022-10-06T16:19:41.674Z,53.02
2022-10-06T16:22:14.214Z,52.81
2022-10-06T16:24:41.436Z,52.52
2022-10-06T16:27:15.686Z,52.61
2022-10-06T16:29:42.728Z,52.60
2022-10-06T16:32:09.725Z,52.93
2022-10-06T16:34:36.592Z,52.99
2022-10-06T16:37:03.597Z,52.95
2022-10-06T16:39:30.646Z,52.60
2022-10-06T16:41:57.567Z,52.54
2022-10-06T16:44:24.625Z,52.79
2022-10-06T16:46:51.610Z,52.50
2022-10-06T16:49:18.673Z,52.76
2022-10-06T16:51:48.408Z,52.52
2022-10-06T16:54:17.366Z,52.45
2022-10-06T16:56:51.760Z,52.62
2022-10-06T16:59:21.296Z,52.81
2022-10-06T17:01:49.503Z,52.61
2022-10-06T17:04:21.911Z,52.60
2022-10-06T17:06:51.235Z,52.56
2022-10-06T17:09:20.440Z,52.59
2022-10-06T17:11:53.133Z,52.58
2022-10-06T17:14:21.572Z,52.51
2022-10-06T17:16:51.786Z,52.78
2022-10-06T17:19:20.823Z,52.97
2022-10-06T17:21:51.543Z,53.04
2022-10-06T17:24:20.249Z,52.86
2022-10-06T17:26:49.262Z,52.91
2022-10-06T17:29:21.454Z,52.90
2022-10-06T17:31:53.347Z,53.02
2022-10-06T17:34:24.391Z,52.89
2022-10-06T17:36:53.590Z,52.73
2022-10-06T17:39:22.937Z,53.10
2022-10-06T17:41:52.664Z,53.19
2022-10-06T17:44:23.772Z,53.02
2022-10-06T17:46:53.899Z,53.13
2022-10-06T17:49:22.645Z,53.10
2022-10-06T17:51:51.398Z,53.16
2022-10-06T17:54:20.715Z,52.81
2022-10-06T17:56:49.938Z,53.24
2022-10-06T17:59:21.095Z,52.92
2022-10-06T18:01:48.765Z,52.97
2022-10-06T18:04:16.178Z,53.08
2022-10-06T18:06:44.724Z,52.91
2022-10-06T18:09:11.859Z,53.07
2022-10-06T18:11:41.624Z,52.72
2022-10-06T18:14:12.046Z,53.01
2022-10-06T18:16:56.399Z,52.82
2022-10-06T18:19:34.652Z,52.95
2022-10-06T18:22:10.297Z,53.13
2022-10-06T18:24:38.503Z,53.03
2022-10-06T18:27:06.632Z,52.99
2022-10-06T18:29:39.058Z,53.24
2022-10-06T18:36:12.183Z,53.21
2022-10-06T18:37:41.770Z,53.24
2022-10-06T18:40:09.865Z,53.22
2022-10-06T18:42:38.733Z,52.88
2022-10-06T18:45:25.357Z,53.09
2022-10-06T18:48:11.131Z,52.64
2022-10-06T18:50:37.967Z,53.45
2022-10-06T18:53:05.232Z,52.72
2022-10-06T18:55:32.337Z,53.22
2022-10-06T18:57:59.350Z,53.02
2022-10-06T19:00:26.353Z,53.08
2022-10-06T19:02:55.465Z,53.16
2022-10-06T19:05:23.425Z,53.00
2022-10-06T19:07:53.803Z,52.88
2022-10-06T19:10:20.976Z,53.04
2022-10-06T19:12:48.457Z,53.31
2022-10-06T19:15:20.421Z,53.09
2022-10-06T19:17:49.214Z,52.95
2022-10-06T19:20:16.703Z,52.88
2022-10-06T19:22:43.647Z,53.24
2022-10-06T19:25:11.258Z,52.89
2022-10-06T19:27:38.213Z,53.17
2022-10-06T19:30:05.468Z,53.25
2022-10-06T19:32:33.754Z,53.00
2022-10-06T19:35:00.798Z,53.14
2022-10-06T19:37:30.213Z,52.80
2022-10-06T19:39:57.663Z,52.90
2022-10-06T19:42:43.017Z,53.00
2022-10-06T19:45:12.031Z,53.16
2022-10-06T19:47:40.287Z,52.97
2022-10-06T19:50:12.231Z,53.09
2022-10-06T19:52:41.494Z,52.96
2022-10-06T19:55:08.474Z,52.89
2022-10-06T19:57:35.312Z,53.02
2022-10-06T20:00:02.460Z,53.28
2022-10-06T20:02:29.323Z,53.34
2022-10-06T20:04:56.666Z,53.04
2022-10-06T20:07:27.578Z,53.16
2022-10-06T20:09:55.660Z,53.07
2022-10-06T20:12:25.246Z,53.22
2022-10-06T20:14:56.174Z,53.41
2022-10-06T20:17:23.236Z,53.06
2022-10-06T20:19:55.111Z,53.14
2022-10-06T20:22:24.963Z,53.23
2022-10-06T20:24:52.287Z,53.30
2022-10-06T20:27:19.853Z,53.35
2022-10-06T20:29:46.972Z,53.16
2022-10-06T20:32:32.686Z,53.25
2022-10-06T20:35:02.168Z,53.30
2022-10-06T20:37:30.669Z,53.22
2022-10-06T20:40:17.418Z,53.24
2022-10-06T20:42:51.293Z,52.96
2022-10-06T20:48:05.674Z,53.32
2022-10-06T20:50:33.899Z,53.39
2022-10-06T20:53:04.652Z,52.89
2022-10-06T20:55:33.692Z,53.13
2022-10-06T20:58:02.835Z,53.27
2022-10-06T21:00:29.862Z,53.37
2022-10-06T21:02:57.256Z,53.12
2022-10-06T21:05:26.553Z,53.53
2022-10-06T21:07:55.957Z,53.04
2022-10-06T21:10:24.440Z,53.44
2022-10-06T21:12:51.723Z,53.11
2022-10-06T21:15:20.937Z,53.31
2022-10-06T21:17:50.403Z,53.37
2022-10-06T21:20:22.227Z,53.13
2022-10-06T21:22:55.407Z,53.12
2022-10-06T21:25:25.186Z,53.04
2022-10-06T21:27:54.025Z,53.48
2022-10-06T21:30:23.587Z,53.29
2022-10-06T21:32:52.306Z,53.27
2022-10-06T21:35:23.414Z,53.23
2022-10-06T21:37:53.134Z,53.27
2022-10-06T21:40:20.620Z,53.44
2022-10-06T21:42:49.855Z,53.44
2022-10-06T21:45:20.960Z,53.45
2022-10-06T21:47:50.916Z,53.19
2022-10-06T21:50:32.753Z,52.99
2022-10-06T21:53:01.596Z,53.51
2022-10-06T21:55:31.605Z,53.50
2022-10-06T21:58:02.964Z,53.17
2022-10-06T22:00:30.614Z,53.45
2022-10-06T22:02:59.545Z,53.32
2022-10-06T22:05:28.844Z,53.17
2022-10-06T22:08:03.036Z,53.76
2022-10-06T22:10:31.870Z,53.46
2022-10-06T22:13:00.365Z,53.07
2022-10-06T22:15:32.063Z,53.10
2022-10-06T22:18:00.363Z,53.39
2022-10-06T22:20:35.296Z,53.05
2022-10-06T22:23:05.326Z,53.42
2022-10-06T22:25:36.368Z,53.00
2022-10-06T22:28:09.514Z,53.15
2022-10-06T22:30:41.504Z,53.35
2022-10-06T22:33:11.364Z,53.27
2022-10-06T22:35:41.198Z,53.01
2022-10-06T22:38:10.971Z,53.24
2022-10-06T22:40:38.524Z,53.31
2022-10-06T22:43:08.610Z,53.04
2022-10-06T22:45:37.319Z,53.35
2022-10-06T22:48:05.327Z,53.10
2022-10-06T22:50:33.686Z,53.04
2022-10-06T22:53:00.995Z,53.17
2022-10-06T22:55:30.147Z,53.43
2022-10-06T22:58:00.045Z,53.05
2022-10-06T23:00:34.502Z,53.22
2022-10-06T23:03:04.241Z,53.33
2022-10-06T23:05:35.613Z,53.48
2022-10-06T23:08:08.638Z,53.36
2022-10-06T23:10:36.400Z,53.17
2022-10-06T23:13:03.895Z,53.19
2022-10-06T23:15:31.080Z,53.37
2022-10-06T23:18:02.657Z,53.44
2022-10-06T23:20:30.866Z,53.35
2022-10-06T23:22:59.498Z,53.47
2022-10-06T23:25:27.743Z,53.43
2022-10-06T23:28:07.315Z,53.36
2022-10-06T23:30:36.965Z,53.57
2022-10-06T23:33:04.630Z,53.35
2022-10-06T23:35:31.900Z,53.21
2022-10-06T23:38:02.260Z,53.89
2022-10-06T23:40:31.002Z,53.48
2022-10-06T23:43:00.909Z,53.58
2022-10-06T23:45:29.379Z,53.06
2022-10-06T23:47:59.490Z,53.57
2022-10-06T23:50:30.941Z,53.60
2022-10-06T23:52:58.063Z,53.21
2022-10-06T23:55:28.453Z,53.50
2022-10-06T23:57:58.972Z,53.31
